sensor_id;sensor_type;location;lat;lon;timestamp;P1;durP1;ratioP1;P2;durP2;ratioP2
7171;SDS011;3627;46.544;14.944;2022-11-15T00:00:47;20.63;;;11.43;;
7171;SDS011;3627;46.544;14.944;2022-11-15T00:03:13;23.60;;;10.93;;
7171;SDS011;3627;46.544;14.944;2022-11-15T00:05:40;26.17;;;12.18;;
7171;SDS011;3627;46.544;14.944;2022-11-15T00:08:07;24.63;;;12.60;;
7171;SDS011;3627;46.544;14.944;2022-11-15T00:10:33;24.27;;;11.20;;
7171;SDS011;3627;46.544;14.944;2022-11-15T00:13:00;21.27;;;11.35;;
7171;SDS011;3627;46.544;14.944;2022-11-15T00:15:31;22.20;;;11.82;;
7171;SDS011;3627;46.544;14.944;2022-11-15T00:17:57;24.45;;;12.05;;
7171;SDS011;3627;46.544;14.944;2022-11-15T00:20:24;21.33;;;10.65;;
7171;SDS011;3627;46.544;14.944;2022-11-15T00:22:50;20.05;;;11.18;;
7171;SDS011;3627;46.544;14.944;2022-11-15T00:25:17;20.30;;;11.07;;
7171;SDS011;3627;46.544;14.944;2022-11-15T00:27:43;20.52;;;11.52;;
7171;SDS011;3627;46.544;14.944;2022-11-15T00:30:10;18.45;;;11.02;;
7171;SDS011;3627;46.544;14.944;2022-11-15T00:32:38;21.63;;;11.07;;
7171;SDS011;3627;46.544;14.944;2022-11-15T00:35:05;23.77;;;11.43;;
7171;SDS011;3627;46.544;14.944;2022-11-15T00:37:31;17.05;;;10.10;;
7171;SDS011;3627;46.544;14.944;2022-11-15T00:39:58;20.75;;;11.82;;
7171;SDS011;3627;46.544;14.944;2022-11-15T00:42:24;23.63;;;11.63;;
7171;SDS011;3627;46.544;14.944;2022-11-15T00:44:51;21.05;;;10.82;;
7171;SDS011;3627;46.544;14.944;2022-11-15T00:47:17;21.08;;;11.57;;
7171;SDS011;3627;46.544;14.944;2022-11-15T00:49:45;29.50;;;11.13;;
7171;SDS011;3627;46.544;14.944;2022-11-15T00:52:11;20.50;;;11.50;;
7171;SDS011;3627;46.544;14.944;2022-11-15T00:54:37;26.75;;;13.32;;
7171;SDS011;3627;46.544;14.944;2022-11-15T00:57:04;19.95;;;10.27;;
7171;SDS011;3627;46.544;14.944;2022-11-15T00:59:30;20.02;;;10.10;;
7171;SDS011;3627;46.544;14.944;2022-11-15T01:01:57;19.65;;;10.77;;
7171;SDS011;3627;46.544;14.944;2022-11-15T01:04:23;21.40;;;11.75;;
7171;SDS011;3627;46.544;14.944;2022-11-15T01:06:51;16.88;;;9.70;;
7171;SDS011;3627;46.544;14.944;2022-11-15T01:09:17;17.27;;;11.13;;
7171;SDS011;3627;46.544;14.944;2022-11-15T01:11:43;18.90;;;10.43;;
7171;SDS011;3627;46.544;14.944;2022-11-15T01:14:10;16.88;;;9.93;;
7171;SDS011;3627;46.544;14.944;2022-11-15T01:16:36;18.17;;;10.30;;
7171;SDS011;3627;46.544;14.944;2022-11-15T01:19:03;19.98;;;10.80;;
7171;SDS011;3627;46.544;14.944;2022-11-15T01:21:29;19.25;;;10.80;;
7171;SDS011;3627;46.544;14.944;2022-11-15T01:23:57;22.17;;;10.15;;
7171;SDS011;3627;46.544;14.944;2022-11-15T01:26:24;19.40;;;10.93;;
7171;SDS011;3627;46.544;14.944;2022-11-15T01:28:50;20.33;;;10.80;;
7171;SDS011;3627;46.544;14.944;2022-11-15T01:31:18;19.85;;;11.23;;
7171;SDS011;3627;46.544;14.944;2022-11-15T01:33:44;19.20;;;9.73;;
7171;SDS011;3627;46.544;14.944;2022-11-15T01:36:11;15.40;;;9.57;;
7171;SDS011;3627;46.544;14.944;2022-11-15T01:38:37;21.20;;;11.63;;
7171;SDS011;3627;46.544;14.944;2022-11-15T01:41:05;20.15;;;10.10;;
7171;SDS011;3627;46.544;14.944;2022-11-15T01:43:33;19.48;;;9.90;;
7171;SDS011;3627;46.544;14.944;2022-11-15T01:46:01;26.20;;;10.48;;
7171;SDS011;3627;46.544;14.944;2022-11-15T01:48:29;17.48;;;10.43;;
7171;SDS011;3627;46.544;14.944;2022-11-15T01:50:57;20.00;;;9.77;;
7171;SDS011;3627;46.544;14.944;2022-11-15T01:53:23;15.85;;;10.45;;
7171;SDS011;3627;46.544;14.944;2022-11-15T01:55:51;21.42;;;10.90;;
7171;SDS011;3627;46.544;14.944;2022-11-15T01:58:19;21.77;;;10.88;;
7171;SDS011;3627;46.544;14.944;2022-11-15T02:00:46;19.27;;;9.98;;
7171;SDS011;3627;46.544;14.944;2022-11-15T02:03:13;21.88;;;11.60;;
7171;SDS011;3627;46.544;14.944;2022-11-15T02:05:39;20.63;;;11.50;;
7171;SDS011;3627;46.544;14.944;2022-11-15T02:08:05;22.38;;;11.20;;
7171;SDS011;3627;46.544;14.944;2022-11-15T02:10:32;19.42;;;11.05;;
7171;SDS011;3627;46.544;14.944;2022-11-15T02:12:59;22.17;;;10.65;;
7171;SDS011;3627;46.544;14.944;2022-11-15T02:15:30;17.20;;;9.20;;
7171;SDS011;3627;46.544;14.944;2022-11-15T02:18:04;18.80;;;10.73;;
7171;SDS011;3627;46.544;14.944;2022-11-15T02:20:43;17.13;;;9.65;;
7171;SDS011;3627;46.544;14.944;2022-11-15T02:23:15;19.15;;;10.88;;
7171;SDS011;3627;46.544;14.944;2022-11-15T02:25:51;22.40;;;10.95;;
7171;SDS011;3627;46.544;14.944;2022-11-15T02:28:28;14.73;;;10.38;;
7171;SDS011;3627;46.544;14.944;2022-11-15T02:30:59;20.00;;;10.82;;
7171;SDS011;3627;46.544;14.944;2022-11-15T02:33:28;14.82;;;9.45;;
7171;SDS011;3627;46.544;14.944;2022-11-15T02:35:59;18.33;;;9.80;;
7171;SDS011;3627;46.544;14.944;2022-11-15T02:38:29;15.10;;;8.75;;
7171;SDS011;3627;46.544;14.944;2022-11-15T02:40:57;19.30;;;9.30;;
7171;SDS011;3627;46.544;14.944;2022-11-15T02:43:38;16.60;;;9.20;;
7171;SDS011;3627;46.544;14.944;2022-11-15T02:46:27;14.95;;;9.23;;
7171;SDS011;3627;46.544;14.944;2022-11-15T02:49:13;15.43;;;8.63;;
7171;SDS011;3627;46.544;14.944;2022-11-15T02:51:40;15.63;;;9.05;;
7171;SDS011;3627;46.544;14.944;2022-11-15T02:54:10;18.42;;;10.45;;
7171;SDS011;3627;46.544;14.944;2022-11-15T02:56:36;15.43;;;9.35;;
7171;SDS011;3627;46.544;14.944;2022-11-15T03:01:48;19.45;;;9.38;;
7171;SDS011;3627;46.544;14.944;2022-11-15T03:04:21;19.33;;;10.02;;
7171;SDS011;3627;46.544;14.944;2022-11-15T03:06:51;18.02;;;10.13;;
7171;SDS011;3627;46.544;14.944;2022-11-15T03:09:21;22.08;;;10.55;;
7171;SDS011;3627;46.544;14.944;2022-11-15T03:11:52;18.55;;;10.45;;
7171;SDS011;3627;46.544;14.944;2022-11-15T03:14:23;16.40;;;9.38;;
7171;SDS011;3627;46.544;14.944;2022-11-15T03:16:55;17.25;;;10.32;;
7171;SDS011;3627;46.544;14.944;2022-11-15T03:19:26;19.63;;;9.93;;
7171;SDS011;3627;46.544;14.944;2022-11-15T03:21:55;18.05;;;10.20;;
7171;SDS011;3627;46.544;14.944;2022-11-15T03:24:24;21.60;;;10.05;;
7171;SDS011;3627;46.544;14.944;2022-11-15T03:26:51;21.23;;;10.98;;
7171;SDS011;3627;46.544;14.944;2022-11-15T03:29:19;16.58;;;9.77;;
7171;SDS011;3627;46.544;14.944;2022-11-15T03:31:49;20.08;;;10.45;;
7171;SDS011;3627;46.544;14.944;2022-11-15T03:34:21;17.85;;;9.85;;
7171;SDS011;3627;46.544;14.944;2022-11-15T03:36:49;23.48;;;10.75;;
7171;SDS011;3627;46.544;14.944;2022-11-15T03:39:17;19.35;;;10.70;;
7171;SDS011;3627;46.544;14.944;2022-11-15T03:41:46;16.55;;;10.00;;
7171;SDS011;3627;46.544;14.944;2022-11-15T03:44:15;17.10;;;9.52;;
7171;SDS011;3627;46.544;14.944;2022-11-15T03:46:43;18.67;;;9.90;;
7171;SDS011;3627;46.544;14.944;2022-11-15T03:49:14;20.27;;;10.15;;
7171;SDS011;3627;46.544;14.944;2022-11-15T03:51:42;15.32;;;8.85;;
7171;SDS011;3627;46.544;14.944;2022-11-15T03:54:10;17.77;;;9.23;;
7171;SDS011;3627;46.544;14.944;2022-11-15T03:56:38;16.80;;;8.82;;
7171;SDS011;3627;46.544;14.944;2022-11-15T03:59:04;21.35;;;11.20;;
7171;SDS011;3627;46.544;14.944;2022-11-15T04:01:30;14.13;;;8.60;;
7171;SDS011;3627;46.544;14.944;2022-11-15T04:03:57;15.88;;;9.60;;
7171;SDS011;3627;46.544;14.944;2022-11-15T04:06:23;16.80;;;9.50;;
7171;SDS011;3627;46.544;14.944;2022-11-15T04:08:51;17.45;;;9.80;;
7171;SDS011;3627;46.544;14.944;2022-11-15T04:11:17;18.13;;;10.50;;
7171;SDS011;3627;46.544;14.944;2022-11-15T04:13:44;15.48;;;8.35;;
7171;SDS011;3627;46.544;14.944;2022-11-15T04:16:10;15.05;;;9.10;;
7171;SDS011;3627;46.544;14.944;2022-11-15T04:18:36;15.38;;;8.48;;
7171;SDS011;3627;46.544;14.944;2022-11-15T04:21:03;13.68;;;8.10;;
7171;SDS011;3627;46.544;14.944;2022-11-15T04:23:47;11.60;;;7.22;;
7171;SDS011;3627;46.544;14.944;2022-11-15T04:26:32;14.55;;;7.80;;
7171;SDS011;3627;46.544;14.944;2022-11-15T04:28:59;11.90;;;6.55;;
7171;SDS011;3627;46.544;14.944;2022-11-15T04:31:42;17.15;;;9.55;;
7171;SDS011;3627;46.544;14.944;2022-11-15T04:34:09;15.05;;;9.52;;
7171;SDS011;3627;46.544;14.944;2022-11-15T04:36:35;18.50;;;9.60;;
7171;SDS011;3627;46.544;14.944;2022-11-15T04:39:19;10.52;;;7.45;;
7171;SDS011;3627;46.544;14.944;2022-11-15T04:41:47;13.60;;;8.18;;
7171;SDS011;3627;46.544;14.944;2022-11-15T04:44:13;14.60;;;7.75;;
7171;SDS011;3627;46.544;14.944;2022-11-15T04:46:40;14.57;;;8.10;;
7171;SDS011;3627;46.544;14.944;2022-11-15T04:49:06;13.77;;;9.00;;
7171;SDS011;3627;46.544;14.944;2022-11-15T04:51:32;15.50;;;8.30;;
7171;SDS011;3627;46.544;14.944;2022-11-15T04:53:59;12.40;;;8.65;;
7171;SDS011;3627;46.544;14.944;2022-11-15T04:56:25;15.23;;;9.02;;
7171;SDS011;3627;46.544;14.944;2022-11-15T04:58:53;15.75;;;9.07;;
7171;SDS011;3627;46.544;14.944;2022-11-15T05:01:19;13.88;;;7.80;;
7171;SDS011;3627;46.544;14.944;2022-11-15T05:03:46;10.93;;;7.95;;
7171;SDS011;3627;46.544;14.944;2022-11-15T05:06:29;13.45;;;7.57;;
7171;SDS011;3627;46.544;14.944;2022-11-15T05:08:56;13.52;;;8.02;;
7171;SDS011;3627;46.544;14.944;2022-11-15T05:11:23;12.80;;;7.32;;
7171;SDS011;3627;46.544;14.944;2022-11-15T05:13:49;15.48;;;8.93;;
7171;SDS011;3627;46.544;14.944;2022-11-15T05:16:17;17.33;;;8.32;;
7171;SDS011;3627;46.544;14.944;2022-11-15T05:18:43;16.20;;;8.10;;
7171;SDS011;3627;46.544;14.944;2022-11-15T05:21:11;13.98;;;8.43;;
7171;SDS011;3627;46.544;14.944;2022-11-15T05:23:38;11.85;;;7.68;;
7171;SDS011;3627;46.544;14.944;2022-11-15T05:26:05;13.10;;;7.03;;
7171;SDS011;3627;46.544;14.944;2022-11-15T05:28:31;13.18;;;7.88;;
7171;SDS011;3627;46.544;14.944;2022-11-15T05:31:00;14.65;;;7.65;;
7171;SDS011;3627;46.544;14.944;2022-11-15T05:33:28;12.80;;;6.88;;
7171;SDS011;3627;46.544;14.944;2022-11-15T05:35:56;11.32;;;6.97;;
7171;SDS011;3627;46.544;14.944;2022-11-15T05:38:24;11.20;;;7.93;;
7171;SDS011;3627;46.544;14.944;2022-11-15T05:40:50;13.70;;;7.82;;
7171;SDS011;3627;46.544;14.944;2022-11-15T05:43:16;14.93;;;7.68;;
7171;SDS011;3627;46.544;14.944;2022-11-15T05:45:43;15.90;;;8.02;;
7171;SDS011;3627;46.544;14.944;2022-11-15T05:48:09;14.52;;;8.40;;
7171;SDS011;3627;46.544;14.944;2022-11-15T05:50:38;12.45;;;7.65;;
7171;SDS011;3627;46.544;14.944;2022-11-15T05:53:05;13.82;;;8.07;;
7171;SDS011;3627;46.544;14.944;2022-11-15T05:55:32;12.20;;;7.97;;
7171;SDS011;3627;46.544;14.944;2022-11-15T05:57:58;13.77;;;7.55;;
7171;SDS011;3627;46.544;14.944;2022-11-15T06:00:25;13.57;;;8.75;;
7171;SDS011;3627;46.544;14.944;2022-11-15T06:02:52;17.98;;;8.88;;
7171;SDS011;3627;46.544;14.944;2022-11-15T06:05:18;12.88;;;8.48;;
7171;SDS011;3627;46.544;14.944;2022-11-15T06:07:46;15.32;;;9.13;;
7171;SDS011;3627;46.544;14.944;2022-11-15T06:10:12;13.38;;;8.73;;
7171;SDS011;3627;46.544;14.944;2022-11-15T06:12:39;20.50;;;9.00;;
7171;SDS011;3627;46.544;14.944;2022-11-15T06:15:06;14.63;;;9.05;;
7171;SDS011;3627;46.544;14.944;2022-11-15T06:17:32;16.60;;;8.63;;
7171;SDS011;3627;46.544;14.944;2022-11-15T06:19:58;14.07;;;8.18;;
7171;SDS011;3627;46.544;14.944;2022-11-15T06:22:25;12.70;;;7.00;;
7171;SDS011;3627;46.544;14.944;2022-11-15T06:24:53;12.23;;;7.30;;
7171;SDS011;3627;46.544;14.944;2022-11-15T06:27:19;13.73;;;7.63;;
7171;SDS011;3627;46.544;14.944;2022-11-15T06:29:45;14.38;;;8.52;;
7171;SDS011;3627;46.544;14.944;2022-11-15T06:32:12;11.85;;;7.25;;
7171;SDS011;3627;46.544;14.944;2022-11-15T06:34:38;12.35;;;7.97;;
7171;SDS011;3627;46.544;14.944;2022-11-15T06:37:04;14.32;;;8.63;;
7171;SDS011;3627;46.544;14.944;2022-11-15T06:39:31;12.45;;;7.53;;
7171;SDS011;3627;46.544;14.944;2022-11-15T06:41:59;16.42;;;8.32;;
7171;SDS011;3627;46.544;14.944;2022-11-15T06:44:25;13.07;;;7.90;;
7171;SDS011;3627;46.544;14.944;2022-11-15T06:46:51;14.52;;;7.78;;
7171;SDS011;3627;46.544;14.944;2022-11-15T06:49:18;16.90;;;8.10;;
7171;SDS011;3627;46.544;14.944;2022-11-15T06:51:44;10.75;;;6.78;;
7171;SDS011;3627;46.544;14.944;2022-11-15T06:54:10;14.35;;;7.68;;
7171;SDS011;3627;46.544;14.944;2022-11-15T06:56:37;14.00;;;8.73;;
7171;SDS011;3627;46.544;14.944;2022-11-15T06:59:05;14.55;;;8.52;;
7171;SDS011;3627;46.544;14.944;2022-11-15T07:01:31;15.60;;;8.35;;
7171;SDS011;3627;46.544;14.944;2022-11-15T07:03:57;12.80;;;7.10;;
7171;SDS011;3627;46.544;14.944;2022-11-15T07:06:24;12.48;;;7.95;;
7171;SDS011;3627;46.544;14.944;2022-11-15T07:08:50;14.57;;;8.02;;
7171;SDS011;3627;46.544;14.944;2022-11-15T07:11:16;11.15;;;7.80;;
7171;SDS011;3627;46.544;14.944;2022-11-15T07:13:43;11.40;;;7.70;;
7171;SDS011;3627;46.544;14.944;2022-11-15T07:16:11;12.30;;;7.30;;
7171;SDS011;3627;46.544;14.944;2022-11-15T07:18:37;13.65;;;7.57;;
7171;SDS011;3627;46.544;14.944;2022-11-15T07:21:05;14.00;;;7.10;;
7171;SDS011;3627;46.544;14.944;2022-11-15T07:23:32;15.27;;;8.45;;
7171;SDS011;3627;46.544;14.944;2022-11-15T07:25:58;13.05;;;7.68;;
7171;SDS011;3627;46.544;14.944;2022-11-15T07:28:25;15.45;;;7.80;;
7171;SDS011;3627;46.544;14.944;2022-11-15T07:30:52;11.32;;;6.82;;
7171;SDS011;3627;46.544;14.944;2022-11-15T07:33:20;11.38;;;6.95;;
7171;SDS011;3627;46.544;14.944;2022-11-15T07:35:46;17.15;;;8.75;;
7171;SDS011;3627;46.544;14.944;2022-11-15T07:38:14;12.18;;;7.28;;
7171;SDS011;3627;46.544;14.944;2022-11-15T07:40:41;14.05;;;7.72;;
7171;SDS011;3627;46.544;14.944;2022-11-15T07:43:07;11.88;;;7.18;;
7171;SDS011;3627;46.544;14.944;2022-11-15T07:45:39;12.02;;;8.20;;
7171;SDS011;3627;46.544;14.944;2022-11-15T07:48:06;11.38;;;8.00;;
7171;SDS011;3627;46.544;14.944;2022-11-15T07:50:33;17.33;;;9.00;;
7171;SDS011;3627;46.544;14.944;2022-11-15T07:53:00;12.27;;;7.50;;
7171;SDS011;3627;46.544;14.944;2022-11-15T07:55:27;12.13;;;7.57;;
7171;SDS011;3627;46.544;14.944;2022-11-15T07:57:59;10.95;;;6.85;;
7171;SDS011;3627;46.544;14.944;2022-11-15T08:00:26;10.13;;;6.22;;
7171;SDS011;3627;46.544;14.944;2022-11-15T08:02:52;11.63;;;6.80;;
7171;SDS011;3627;46.544;14.944;2022-11-15T08:05:18;11.07;;;7.18;;
7171;SDS011;3627;46.544;14.944;2022-11-15T08:07:46;10.18;;;6.53;;
7171;SDS011;3627;46.544;14.944;2022-11-15T08:10:13;8.70;;;5.82;;
7171;SDS011;3627;46.544;14.944;2022-11-15T08:12:41;10.57;;;6.10;;
7171;SDS011;3627;46.544;14.944;2022-11-15T08:15:08;7.60;;;5.65;;
7171;SDS011;3627;46.544;14.944;2022-11-15T08:17:34;8.95;;;5.70;;
7171;SDS011;3627;46.544;14.944;2022-11-15T08:20:01;10.98;;;6.45;;
7171;SDS011;3627;46.544;14.944;2022-11-15T08:22:28;10.05;;;5.88;;
7171;SDS011;3627;46.544;14.944;2022-11-15T08:24:56;9.82;;;5.85;;
7171;SDS011;3627;46.544;14.944;2022-11-15T08:27:22;10.45;;;5.68;;
7171;SDS011;3627;46.544;14.944;2022-11-15T08:29:49;10.23;;;6.50;;
7171;SDS011;3627;46.544;14.944;2022-11-15T08:32:15;9.10;;;6.07;;
7171;SDS011;3627;46.544;14.944;2022-11-15T08:34:42;8.23;;;6.07;;
7171;SDS011;3627;46.544;14.944;2022-11-15T08:37:09;10.82;;;6.15;;
7171;SDS011;3627;46.544;14.944;2022-11-15T08:39:35;9.20;;;5.43;;
7171;SDS011;3627;46.544;14.944;2022-11-15T08:42:04;7.63;;;5.43;;
7171;SDS011;3627;46.544;14.944;2022-11-15T08:44:30;9.43;;;6.15;;
7171;SDS011;3627;46.544;14.944;2022-11-15T08:46:57;7.25;;;5.57;;
7171;SDS011;3627;46.544;14.944;2022-11-15T08:49:23;8.27;;;5.70;;
7171;SDS011;3627;46.544;14.944;2022-11-15T08:51:50;8.70;;;5.18;;
7171;SDS011;3627;46.544;14.944;2022-11-15T08:54:16;7.25;;;4.80;;
7171;SDS011;3627;46.544;14.944;2022-11-15T08:56:42;10.43;;;5.65;;
7171;SDS011;3627;46.544;14.944;2022-11-15T08:59:10;7.90;;;5.15;;
7171;SDS011;3627;46.544;14.944;2022-11-15T09:01:36;6.13;;;4.75;;
7171;SDS011;3627;46.544;14.944;2022-11-15T09:04:03;6.40;;;4.57;;
7171;SDS011;3627;46.544;14.944;2022-11-15T09:06:30;8.73;;;5.47;;
7171;SDS011;3627;46.544;14.944;2022-11-15T09:08:57;8.10;;;4.65;;
7171;SDS011;3627;46.544;14.944;2022-11-15T09:11:23;6.50;;;5.07;;
7171;SDS011;3627;46.544;14.944;2022-11-15T09:13:51;5.15;;;4.20;;
7171;SDS011;3627;46.544;14.944;2022-11-15T09:16:19;8.35;;;5.15;;
7171;SDS011;3627;46.544;14.944;2022-11-15T09:18:45;5.50;;;4.38;;
7171;SDS011;3627;46.544;14.944;2022-11-15T09:21:12;7.10;;;4.90;;
7171;SDS011;3627;46.544;14.944;2022-11-15T09:23:38;6.65;;;4.97;;
7171;SDS011;3627;46.544;14.944;2022-11-15T09:26:05;5.30;;;4.05;;
7171;SDS011;3627;46.544;14.944;2022-11-15T09:28:32;6.57;;;4.40;;
7171;SDS011;3627;46.544;14.944;2022-11-15T09:30:59;7.40;;;4.47;;
7171;SDS011;3627;46.544;14.944;2022-11-15T09:33:27;6.18;;;4.40;;
7171;SDS011;3627;46.544;14.944;2022-11-15T09:35:53;5.88;;;4.32;;
7171;SDS011;3627;46.544;14.944;2022-11-15T09:38:20;6.30;;;4.72;;
7171;SDS011;3627;46.544;14.944;2022-11-15T09:40:47;4.80;;;3.97;;
7171;SDS011;3627;46.544;14.944;2022-11-15T09:43:25;6.82;;;4.70;;
7171;SDS011;3627;46.544;14.944;2022-11-15T09:45:56;4.53;;;3.70;;
7171;SDS011;3627;46.544;14.944;2022-11-15T09:48:29;3.75;;;3.38;;
7171;SDS011;3627;46.544;14.944;2022-11-15T09:51:01;3.35;;;3.00;;
7171;SDS011;3627;46.544;14.944;2022-11-15T09:53:29;4.15;;;3.35;;
7171;SDS011;3627;46.544;14.944;2022-11-15T09:55:59;3.58;;;2.72;;
7171;SDS011;3627;46.544;14.944;2022-11-15T09:58:26;4.68;;;2.92;;
7171;SDS011;3627;46.544;14.944;2022-11-15T10:00:54;4.97;;;3.65;;
7171;SDS011;3627;46.544;14.944;2022-11-15T10:03:24;4.35;;;3.58;;
7171;SDS011;3627;46.544;14.944;2022-11-15T10:05:54;3.25;;;2.78;;
7171;SDS011;3627;46.544;14.944;2022-11-15T10:08:30;3.70;;;3.15;;
7171;SDS011;3627;46.544;14.944;2022-11-15T10:10:58;5.03;;;3.70;;
7171;SDS011;3627;46.544;14.944;2022-11-15T10:13:25;4.28;;;3.22;;
7171;SDS011;3627;46.544;14.944;2022-11-15T10:15:53;6.60;;;4.30;;
7171;SDS011;3627;46.544;14.944;2022-11-15T10:18:22;5.15;;;3.72;;
7171;SDS011;3627;46.544;14.944;2022-11-15T10:20:57;5.88;;;3.75;;
7171;SDS011;3627;46.544;14.944;2022-11-15T10:23:24;5.57;;;3.42;;
7171;SDS011;3627;46.544;14.944;2022-11-15T10:25:51;5.18;;;3.83;;
7171;SDS011;3627;46.544;14.944;2022-11-15T10:28:21;6.50;;;4.00;;
7171;SDS011;3627;46.544;14.944;2022-11-15T10:30:48;3.65;;;3.25;;
7171;SDS011;3627;46.544;14.944;2022-11-15T10:33:24;4.78;;;3.60;;
7171;SDS011;3627;46.544;14.944;2022-11-15T10:38:35;4.53;;;3.22;;
7171;SDS011;3627;46.544;14.944;2022-11-15T10:41:16;3.22;;;2.95;;
7171;SDS011;3627;46.544;14.944;2022-11-15T10:43:42;3.42;;;3.10;;
7171;SDS011;3627;46.544;14.944;2022-11-15T10:46:16;3.13;;;2.83;;
7171;SDS011;3627;46.544;14.944;2022-11-15T10:48:44;4.65;;;3.05;;
7171;SDS011;3627;46.544;14.944;2022-11-15T10:51:18;4.03;;;2.85;;
7171;SDS011;3627;46.544;14.944;2022-11-15T10:53:47;3.72;;;3.30;;
7171;SDS011;3627;46.544;14.944;2022-11-15T10:56:14;4.25;;;2.92;;
7171;SDS011;3627;46.544;14.944;2022-11-15T10:58:41;3.40;;;3.10;;
7171;SDS011;3627;46.544;14.944;2022-11-15T11:01:09;5.00;;;2.85;;
7171;SDS011;3627;46.544;14.944;2022-11-15T11:03:36;4.32;;;3.25;;
7171;SDS011;3627;46.544;14.944;2022-11-15T11:06:04;3.78;;;3.10;;
7171;SDS011;3627;46.544;14.944;2022-11-15T11:08:31;2.80;;;2.60;;
7171;SDS011;3627;46.544;14.944;2022-11-15T11:11:01;3.45;;;2.90;;
7171;SDS011;3627;46.544;14.944;2022-11-15T11:13:28;3.55;;;2.72;;
7171;SDS011;3627;46.544;14.944;2022-11-15T11:15:55;5.55;;;3.33;;
7171;SDS011;3627;46.544;14.944;2022-11-15T11:18:26;4.40;;;3.30;;
7171;SDS011;3627;46.544;14.944;2022-11-15T11:20:54;3.55;;;3.10;;
7171;SDS011;3627;46.544;14.944;2022-11-15T11:23:37;3.22;;;2.70;;
7171;SDS011;3627;46.544;14.944;2022-11-15T11:26:10;3.22;;;2.67;;
7171;SDS011;3627;46.544;14.944;2022-11-15T11:28:41;3.35;;;2.78;;
7171;SDS011;3627;46.544;14.944;2022-11-15T11:31:14;3.30;;;3.00;;
7171;SDS011;3627;46.544;14.944;2022-11-15T11:33:44;3.00;;;2.80;;
7171;SDS011;3627;46.544;14.944;2022-11-15T11:36:17;3.17;;;2.88;;
7171;SDS011;3627;46.544;14.944;2022-11-15T11:38:49;4.20;;;3.13;;
7171;SDS011;3627;46.544;14.944;2022-11-15T11:41:23;4.13;;;3.22;;
7171;SDS011;3627;46.544;14.944;2022-11-15T11:43:56;3.25;;;2.95;;
7171;SDS011;3627;46.544;14.944;2022-11-15T11:46:32;4.53;;;3.50;;
7171;SDS011;3627;46.544;14.944;2022-11-15T11:49:02;6.13;;;3.88;;
7171;SDS011;3627;46.544;14.944;2022-11-15T11:51:32;8.38;;;5.57;;
7171;SDS011;3627;46.544;14.944;2022-11-15T11:54:01;6.38;;;4.28;;
7171;SDS011;3627;46.544;14.944;2022-11-15T11:56:31;9.60;;;4.40;;
7171;SDS011;3627;46.544;14.944;2022-11-15T11:59:00;12.95;;;7.40;;
7171;SDS011;3627;46.544;14.944;2022-11-15T12:01:29;17.48;;;10.00;;
7171;SDS011;3627;46.544;14.944;2022-11-15T12:03:57;8.35;;;5.50;;
7171;SDS011;3627;46.544;14.944;2022-11-15T12:06:27;6.65;;;4.53;;
7171;SDS011;3627;46.544;14.944;2022-11-15T12:08:56;9.90;;;5.05;;
7171;SDS011;3627;46.544;14.944;2022-11-15T12:11:27;9.45;;;5.65;;
7171;SDS011;3627;46.544;14.944;2022-11-15T12:13:57;8.13;;;4.90;;
7171;SDS011;3627;46.544;14.944;2022-11-15T12:16:26;10.50;;;5.20;;
7171;SDS011;3627;46.544;14.944;2022-11-15T12:18:54;10.23;;;5.70;;
7171;SDS011;3627;46.544;14.944;2022-11-15T12:21:21;9.52;;;5.47;;
7171;SDS011;3627;46.544;14.944;2022-11-15T12:23:52;8.60;;;4.90;;
7171;SDS011;3627;46.544;14.944;2022-11-15T12:26:20;10.88;;;6.18;;
7171;SDS011;3627;46.544;14.944;2022-11-15T12:28:49;7.90;;;4.72;;
7171;SDS011;3627;46.544;14.944;2022-11-15T12:31:19;8.85;;;5.50;;
7171;SDS011;3627;46.544;14.944;2022-11-15T12:33:47;8.05;;;5.10;;
7171;SDS011;3627;46.544;14.944;2022-11-15T12:36:29;10.48;;;6.00;;
7171;SDS011;3627;46.544;14.944;2022-11-15T12:38:57;6.85;;;4.63;;
7171;SDS011;3627;46.544;14.944;2022-11-15T12:41:24;24.58;;;11.65;;
7171;SDS011;3627;46.544;14.944;2022-11-15T12:43:51;9.27;;;5.78;;
7171;SDS011;3627;46.544;14.944;2022-11-15T12:46:23;16.40;;;9.75;;
7171;SDS011;3627;46.544;14.944;2022-11-15T12:48:52;10.45;;;5.55;;
7171;SDS011;3627;46.544;14.944;2022-11-15T12:51:22;10.43;;;5.05;;
7171;SDS011;3627;46.544;14.944;2022-11-15T12:53:54;5.70;;;4.43;;
7171;SDS011;3627;46.544;14.944;2022-11-15T12:56:21;9.60;;;5.22;;
7171;SDS011;3627;46.544;14.944;2022-11-15T12:58:49;9.45;;;6.30;;
7171;SDS011;3627;46.544;14.944;2022-11-15T13:04:23;5.82;;;4.00;;
7171;SDS011;3627;46.544;14.944;2022-11-15T13:06:51;5.28;;;4.07;;
7171;SDS011;3627;46.544;14.944;2022-11-15T13:12:03;5.80;;;4.75;;
7171;SDS011;3627;46.544;14.944;2022-11-15T13:14:46;5.97;;;4.35;;
7171;SDS011;3627;46.544;14.944;2022-11-15T13:20:16;6.97;;;4.47;;
7171;SDS011;3627;46.544;14.944;2022-11-15T13:22:44;5.85;;;4.07;;
7171;SDS011;3627;46.544;14.944;2022-11-15T13:25:18;6.15;;;3.95;;
7171;SDS011;3627;46.544;14.944;2022-11-15T13:27:46;5.03;;;3.63;;
7171;SDS011;3627;46.544;14.944;2022-11-15T13:30:14;8.75;;;3.97;;
7171;SDS011;3627;46.544;14.944;2022-11-15T13:32:42;9.05;;;4.88;;
7171;SDS011;3627;46.544;14.944;2022-11-15T13:35:08;7.18;;;5.13;;
7171;SDS011;3627;46.544;14.944;2022-11-15T13:37:36;5.68;;;4.13;;
7171;SDS011;3627;46.544;14.944;2022-11-15T13:40:18;4.70;;;4.03;;
7171;SDS011;3627;46.544;14.944;2022-11-15T13:42:45;6.70;;;4.60;;
7171;SDS011;3627;46.544;14.944;2022-11-15T13:45:13;6.60;;;4.18;;
7171;SDS011;3627;46.544;14.944;2022-11-15T13:47:39;7.00;;;4.20;;
7171;SDS011;3627;46.544;14.944;2022-11-15T13:50:10;6.75;;;4.22;;
7171;SDS011;3627;46.544;14.944;2022-11-15T13:52:38;7.85;;;4.30;;
7171;SDS011;3627;46.544;14.944;2022-11-15T13:55:09;6.20;;;4.85;;
7171;SDS011;3627;46.544;14.944;2022-11-15T13:57:37;6.95;;;4.15;;
7171;SDS011;3627;46.544;14.944;2022-11-15T14:00:21;5.40;;;4.00;;
7171;SDS011;3627;46.544;14.944;2022-11-15T14:02:49;13.65;;;8.48;;
7171;SDS011;3627;46.544;14.944;2022-11-15T14:05:16;7.82;;;5.43;;
7171;SDS011;3627;46.544;14.944;2022-11-15T14:07:53;4.50;;;3.78;;
7171;SDS011;3627;46.544;14.944;2022-11-15T14:10:24;6.85;;;4.43;;
7171;SDS011;3627;46.544;14.944;2022-11-15T14:12:51;5.55;;;4.13;;
7171;SDS011;3627;46.544;14.944;2022-11-15T14:15:19;5.85;;;3.95;;
7171;SDS011;3627;46.544;14.944;2022-11-15T14:17:50;5.85;;;4.18;;
7171;SDS011;3627;46.544;14.944;2022-11-15T14:20:25;5.43;;;3.90;;
7171;SDS011;3627;46.544;14.944;2022-11-15T14:22:54;6.72;;;4.43;;
7171;SDS011;3627;46.544;14.944;2022-11-15T14:25:21;5.80;;;4.32;;
7171;SDS011;3627;46.544;14.944;2022-11-15T14:30:28;4.72;;;3.38;;
7171;SDS011;3627;46.544;14.944;2022-11-15T14:32:55;5.38;;;3.60;;
7171;SDS011;3627;46.544;14.944;2022-11-15T14:35:22;7.07;;;4.00;;
7171;SDS011;3627;46.544;14.944;2022-11-15T14:37:49;4.78;;;4.25;;
7171;SDS011;3627;46.544;14.944;2022-11-15T14:40:17;5.93;;;5.18;;
7171;SDS011;3627;46.544;14.944;2022-11-15T14:42:44;5.05;;;3.78;;
7171;SDS011;3627;46.544;14.944;2022-11-15T14:45:12;4.28;;;3.20;;
7171;SDS011;3627;46.544;14.944;2022-11-15T14:47:39;5.60;;;3.83;;
7171;SDS011;3627;46.544;14.944;2022-11-15T14:50:06;4.45;;;3.40;;
7171;SDS011;3627;46.544;14.944;2022-11-15T14:52:33;5.75;;;3.83;;
7171;SDS011;3627;46.544;14.944;2022-11-15T14:55:00;3.90;;;3.47;;
7171;SDS011;3627;46.544;14.944;2022-11-15T14:57:28;8.57;;;4.45;;
7171;SDS011;3627;46.544;14.944;2022-11-15T14:59:55;5.25;;;3.83;;
7171;SDS011;3627;46.544;14.944;2022-11-15T15:02:23;4.63;;;3.55;;
7171;SDS011;3627;46.544;14.944;2022-11-15T15:04:50;3.58;;;3.08;;
7171;SDS011;3627;46.544;14.944;2022-11-15T15:07:16;4.80;;;3.60;;
7171;SDS011;3627;46.544;14.944;2022-11-15T15:09:43;10.52;;;5.03;;
7171;SDS011;3627;46.544;14.944;2022-11-15T15:12:14;5.38;;;4.68;;
7171;SDS011;3627;46.544;14.944;2022-11-15T15:14:42;5.25;;;3.35;;